createdAt,value
2019-03-10T00:00:00.716Z,6.20
2019-03-10T00:03:07.638Z,6.30
2019-03-10T00:06:14.583Z,6.30
2019-03-10T00:09:21.751Z,6.40
2019-03-10T00:12:28.690Z,6.50
2019-03-10T00:15:35.655Z,6.50
2019-03-10T00:18:42.605Z,6.50
2019-03-10T00:21:49.637Z,6.50
2019-03-10T00:24:56.615Z,6.60
2019-03-10T00:28:03.711Z,6.70
2019-03-10T00:31:10.614Z,6.80
2019-03-10T00:34:17.505Z,6.90
2019-03-10T00:37:24.613Z,6.90
2019-03-10T00:41:24.476Z,6.90
2019-03-10T00:45:06.839Z,6.80
2019-03-10T00:48:43.612Z,6.80
2019-03-10T00:52:10.146Z,6.70
2019-03-10T00:55:17.062Z,6.70
2019-03-10T00:58:23.973Z,6.80
2019-03-10T01:01:30.869Z,6.80
2019-03-10T01:04:37.767Z,6.80
2019-03-10T01:07:44.658Z,6.80
2019-03-10T01:10:51.973Z,6.80
2019-03-10T01:13:58.853Z,6.90
2019-03-10T01:17:05.781Z,7.00
2019-03-10T01:20:12.816Z,7.10
2019-03-10T01:23:19.748Z,7.00
2019-03-10T01:26:26.654Z,7.00
2019-03-10T01:29:33.632Z,7.10
2019-03-10T01:33:09.561Z,7.00
2019-03-10T01:36:15.557Z,7.00
2019-03-10T01:39:22.792Z,6.90
2019-03-10T01:42:29.832Z,6.80
2019-03-10T01:45:37.204Z,6.70
2019-03-10T01:48:44.283Z,6.80
2019-03-10T01:51:51.424Z,6.80
2019-03-10T01:54:58.487Z,6.80
2019-03-10T01:58:05.364Z,6.80
2019-03-10T02:01:12.342Z,6.80
2019-03-10T02:04:19.409Z,6.70
2019-03-10T02:07:26.431Z,6.70
2019-03-10T02:10:33.606Z,6.80
2019-03-10T02:13:40.753Z,6.80
2019-03-10T02:16:47.805Z,6.80
2019-03-10T02:19:55.215Z,6.80
2019-03-10T02:23:02.429Z,6.80
2019-03-10T02:26:09.277Z,6.80
2019-03-10T02:29:16.774Z,6.90
2019-03-10T02:32:24.217Z,7.00
2019-03-10T02:35:31.422Z,7.00
2019-03-10T02:38:38.430Z,7.00
2019-03-10T02:41:46.204Z,7.10
2019-03-10T02:44:53.420Z,7.20
2019-03-10T02:48:00.501Z,7.20
2019-03-10T02:51:07.378Z,7.10
2019-03-10T02:54:14.899Z,7.20
2019-03-10T02:57:22.375Z,7.20
2019-03-10T03:00:29.946Z,7.20
2019-03-10T03:03:36.819Z,7.20
2019-03-10T03:06:44.705Z,7.20
2019-03-10T03:09:51.759Z,7.10
2019-03-10T03:12:58.996Z,7.00
2019-03-10T03:16:06.103Z,7.00
2019-03-10T03:19:13.012Z,7.00
2019-03-10T03:22:20.751Z,6.90
2019-03-10T03:25:27.790Z,6.90
2019-03-10T03:28:34.866Z,7.00
2019-03-10T03:31:42.119Z,7.00
2019-03-10T03:34:49.162Z,7.00
2019-03-10T03:37:56.371Z,7.00
2019-03-10T03:41:06.001Z,6.90
2019-03-10T03:44:13.328Z,6.90
2019-03-10T03:47:21.338Z,7.10
2019-03-10T03:50:28.771Z,7.20
2019-03-10T03:53:35.686Z,7.20
2019-03-10T03:56:42.980Z,7.10
2019-03-10T03:59:50.284Z,7.20
2019-03-10T04:02:57.346Z,7.20
2019-03-10T04:06:04.545Z,7.10
2019-03-10T04:09:13.580Z,7.20
2019-03-10T04:12:20.912Z,7.10
2019-03-10T04:15:28.250Z,7.20
2019-03-10T04:18:36.353Z,7.20
2019-03-10T04:21:44.513Z,7.20
2019-03-10T04:24:51.727Z,7.10
2019-03-10T04:27:58.757Z,7.20
2019-03-10T04:31:05.977Z,7.10
2019-03-10T04:34:20.319Z,7.10
2019-03-10T04:37:27.253Z,7.10
2019-03-10T04:40:34.502Z,7.10
2019-03-10T04:43:41.691Z,7.00
2019-03-10T04:46:48.721Z,7.00
2019-03-10T04:49:56.108Z,7.00
2019-03-10T04:53:03.076Z,7.00
2019-03-10T04:56:25.304Z,7.00
2019-03-10T04:59:32.268Z,6.90
2019-03-10T05:02:39.213Z,6.90
2019-03-10T05:05:46.892Z,6.90
2019-03-10T05:08:54.340Z,6.80
2019-03-10T05:12:01.483Z,6.80
2019-03-10T05:15:08.514Z,6.90
2019-03-10T05:18:16.343Z,6.80
2019-03-10T05:21:24.283Z,6.80
2019-03-10T05:24:31.419Z,6.80
2019-03-10T05:27:38.387Z,6.70
2019-03-10T05:30:45.925Z,6.60
2019-03-10T05:33:52.958Z,6.50
2019-03-10T05:37:00.742Z,6.40
2019-03-10T05:40:07.998Z,6.40
2019-03-10T05:43:15.234Z,6.30
2019-03-10T05:46:22.479Z,6.30
2019-03-10T05:49:30.634Z,6.30
2019-03-10T05:52:37.487Z,6.20
2019-03-10T05:55:45.159Z,6.20
2019-03-10T05:58:52.502Z,6.20
2019-03-10T06:01:59.684Z,6.20
2019-03-10T06:05:06.626Z,6.30
2019-03-10T06:08:14.448Z,6.10
2019-03-10T06:11:21.425Z,6.10
2019-03-10T06:14:28.531Z,6.20
2019-03-10T06:17:35.507Z,6.10
2019-03-10T06:20:42.972Z,6.10
2019-03-10T06:23:54.066Z,6.00
2019-03-10T06:27:01.877Z,5.90
2019-03-10T06:30:11.980Z,5.90
2019-03-10T06:33:19.094Z,5.90
2019-03-10T06:36:26.221Z,5.80
2019-03-10T06:39:33.387Z,5.70
2019-03-10T06:42:40.695Z,5.60
2019-03-10T06:45:48.085Z,5.60
2019-03-10T06:48:55.268Z,5.60
2019-03-10T06:52:02.318Z,5.60
2019-03-10T06:55:09.176Z,5.70
2019-03-10T06:58:16.679Z,5.60
2019-03-10T07:01:24.018Z,5.60
2019-03-10T07:04:31.289Z,5.50
2019-03-10T07:07:38.140Z,5.40
2019-03-10T07:10:45.869Z,5.30
2019-03-10T07:13:52.801Z,5.30
2019-03-10T07:16:59.972Z,5.20
2019-03-10T07:20:14.440Z,5.10
2019-03-10T07:23:21.598Z,5.00
2019-03-10T07:26:28.889Z,5.00
2019-03-10T07:29:41.044Z,5.00
2019-03-10T07:33:10.615Z,5.00
2019-03-10T07:36:39.448Z,5.00
2019-03-10T07:39:56.468Z,5.10
2019-03-10T07:43:10.066Z,5.10
2019-03-10T07:46:51.149Z,5.10
2019-03-10T07:50:13.804Z,5.10
2019-03-10T07:53:30.995Z,5.10
2019-03-10T07:57:00.115Z,5.30
2019-03-10T08:00:30.358Z,5.30
2019-03-10T08:04:11.531Z,5.20
2019-03-10T08:07:36.315Z,5.10
2019-03-10T08:11:05.200Z,5.30
2019-03-10T08:14:31.143Z,5.40
2019-03-10T08:17:53.466Z,5.20
2019-03-10T08:21:22.472Z,5.20
2019-03-10T08:24:47.188Z,5.20
2019-03-10T08:28:16.269Z,5.30
2019-03-10T08:31:39.948Z,5.30
2019-03-10T08:35:04.694Z,5.40
2019-03-10T08:38:25.306Z,5.40
2019-03-10T08:41:52.058Z,5.40
2019-03-10T08:45:04.795Z,5.40
2019-03-10T08:48:36.389Z,5.30
2019-03-10T08:51:53.764Z,5.70
2019-03-10T08:55:09.545Z,6.00
2019-03-10T08:58:50.643Z,6.00
2019-03-10T09:02:22.788Z,5.90
2019-03-10T09:05:37.034Z,5.60
2019-03-10T09:09:01.689Z,5.80
2019-03-10T09:12:19.150Z,6.00
2019-03-10T09:15:44.029Z,6.10
2019-03-10T09:19:13.113Z,6.20
2019-03-10T09:22:39.003Z,6.30
2019-03-10T09:26:11.348Z,6.10
2019-03-10T09:29:43.279Z,6.20
2019-03-10T09:33:09.327Z,6.10
2019-03-10T09:36:36.326Z,6.10
2019-03-10T09:40:02.648Z,6.00
2019-03-10T09:43:27.156Z,6.10
2019-03-10T09:46:43.777Z,5.60
2019-03-10T09:50:08.359Z,5.90
2019-03-10T09:53:39.045Z,6.10
2019-03-10T09:57:03.771Z,6.50
2019-03-10T10:00:25.110Z,6.50
2019-03-10T10:03:48.064Z,6.40
2019-03-10T10:07:22.923Z,6.40
2019-03-10T10:10:48.944Z,6.30
2019-03-10T10:14:21.182Z,6.50
2019-03-10T10:17:50.274Z,6.40
2019-03-10T10:21:07.460Z,6.50
2019-03-10T10:24:39.500Z,6.40
2019-03-10T10:28:04.315Z,6.40
2019-03-10T10:31:45.382Z,6.60
2019-03-10T10:35:20.333Z,6.90
2019-03-10T10:39:04.218Z,6.90
2019-03-10T10:42:47.956Z,7.20
2019-03-10T10:46:16.636Z,7.20
2019-03-10T10:49:48.605Z,7.50
2019-03-10T10:53:15.764Z,7.60
2019-03-10T10:56:36.848Z,7.70
2019-03-10T10:59:58.820Z,7.90
2019-03-10T11:03:28.015Z,8.40
2019-03-10T11:07:00.292Z,9.00
2019-03-10T11:10:39.007Z,9.40
2019-03-10T11:14:20.467Z,9.90
2019-03-10T11:17:32.784Z,11.50
2019-03-10T11:20:59.682Z,13.70
2019-03-10T11:24:14.760Z,13.40
2019-03-10T11:27:36.367Z,13.30
2019-03-10T11:30:52.383Z,13.20
2019-03-10T11:34:18.337Z,13.30
2019-03-10T11:37:41.953Z,13.80
2019-03-10T11:41:33.773Z,13.60
2019-03-10T11:44:57.075Z,13.60
2019-03-10T11:48:22.995Z,13.80
2019-03-10T11:51:49.731Z,13.60
2019-03-10T11:55:25.213Z,13.30
2019-03-10T11:58:51.754Z,12.90
2019-03-10T12:02:29.874Z,12.50
2019-03-10T12:06:02.346Z,12.70
2019-03-10T12:09:21.110Z,12.80
2019-03-10T12:12:28.385Z,12.80
2019-03-10T12:15:35.742Z,13.10
2019-03-10T12:18:44.045Z,13.30
2019-03-10T12:21:51.233Z,13.40
2019-03-10T12:24:58.489Z,13.40
2019-03-10T12:28:05.633Z,12.90
2019-03-10T12:31:14.366Z,12.60
2019-03-10T12:34:21.480Z,12.20
2019-03-10T12:37:28.669Z,12.10
2019-03-10T12:40:35.730Z,12.20
2019-03-10T12:43:42.875Z,12.10
2019-03-10T12:46:50.045Z,11.60
2019-03-10T12:49:57.291Z,11.50
2019-03-10T12:53:04.599Z,11.20
2019-03-10T12:56:11.642Z,10.90
2019-03-10T12:59:18.880Z,10.60
2019-03-10T13:02:25.932Z,10.30
2019-03-10T13:05:33.059Z,10.10
2019-03-10T13:08:39.915Z,10.10
2019-03-10T13:11:47.190Z,10.00
2019-03-10T13:14:59.486Z,9.90
2019-03-10T13:18:03.132Z,9.90
2019-03-10T13:21:10.106Z,10.00
2019-03-10T13:24:17.278Z,10.00
2019-03-10T13:27:25.496Z,10.10
2019-03-10T13:30:32.523Z,10.00
2019-03-10T13:33:41.967Z,10.00
2019-03-10T13:36:49.746Z,9.80
2019-03-10T13:39:57.291Z,9.80
2019-03-10T13:43:04.466Z,9.80
2019-03-10T13:46:11.846Z,9.80
2019-03-10T13:49:19.089Z,9.90
2019-03-10T13:52:26.194Z,10.00
2019-03-10T13:55:33.332Z,10.10
2019-03-10T13:58:40.214Z,10.20
2019-03-10T14:01:47.765Z,10.30
2019-03-10T14:04:54.988Z,10.30
2019-03-10T14:08:02.139Z,10.50
2019-03-10T14:11:09.069Z,10.60
2019-03-10T14:14:16.478Z,10.50
2019-03-10T14:17:23.751Z,10.40
2019-03-10T14:20:30.870Z,10.40
2019-03-10T14:23:38.349Z,10.50
2019-03-10T14:26:45.628Z,10.50
2019-03-10T14:29:52.621Z,10.50
2019-03-10T14:32:59.807Z,10.40
2019-03-10T14:36:07.087Z,10.40
2019-03-10T14:39:14.054Z,10.40
2019-03-10T14:42:21.235Z,10.40
2019-03-10T14:45:28.303Z,10.40
2019-03-10T14:48:35.308Z,10.50
2019-03-10T14:51:42.183Z,10.50
2019-03-10T14:54:49.351Z,10.40
2019-03-10T14:57:56.391Z,10.30
2019-03-10T15:01:03.363Z,10.20
2019-03-10T15:04:10.344Z,10.10
2019-03-10T15:07:17.482Z,10.00
2019-03-10T15:10:24.621Z,9.60
2019-03-10T15:13:33.914Z,9.40
2019-03-10T15:16:40.834Z,9.20
2019-03-10T15:19:47.935Z,9.20
2019-03-10T15:22:55.025Z,9.30
2019-03-10T15:26:02.742Z,9.40
2019-03-10T15:29:09.693Z,9.30
2019-03-10T15:32:16.917Z,9.30
2019-03-10T15:35:24.173Z,9.20
2019-03-10T15:38:31.299Z,9.20
2019-03-10T15:41:38.365Z,9.30
2019-03-10T15:44:45.599Z,9.30
2019-03-10T15:47:52.585Z,9.40
2019-03-10T15:50:59.986Z,9.40
2019-03-10T15:54:06.877Z,9.40
2019-03-10T15:57:14.062Z,9.40
2019-03-10T16:00:21.644Z,9.50
2019-03-10T16:03:28.844Z,9.60
2019-03-10T16:06:36.089Z,9.80
2019-03-10T16:09:43.333Z,9.80
2019-03-10T16:12:50.657Z,9.90
2019-03-10T16:15:57.765Z,9.90
2019-03-10T16:19:04.891Z,9.90
2019-03-10T16:22:11.771Z,9.90
2019-03-10T16:25:19.135Z,9.90
2019-03-10T16:28:26.146Z,9.90
2019-03-10T16:31:36.195Z,9.90
2019-03-10T16:34:43.193Z,9.90
2019-03-10T16:37:50.155Z,9.80
2019-03-10T16:40:57.163Z,9.80
2019-03-10T16:44:08.995Z,9.80
2019-03-10T16:47:15.980Z,9.80
2019-03-10T16:50:23.533Z,9.80
2019-03-10T16:53:30.634Z,9.80
2019-03-10T16:56:37.553Z,9.70
2019-03-10T16:59:44.530Z,9.70
2019-03-10T17:02:52.094Z,9.60
2019-03-10T17:05:59.093Z,9.60
2019-03-10T17:09:17.486Z,9.50
2019-03-10T17:12:25.727Z,9.40
2019-03-10T17:15:36.490Z,9.30
2019-03-10T17:18:43.444Z,9.30
2019-03-10T17:21:50.407Z,9.20
2019-03-10T17:24:57.374Z,9.10
2019-03-10T17:28:04.251Z,9.10
2019-03-10T17:31:11.213Z,9.10
2019-03-10T17:34:18.379Z,9.00
2019-03-10T17:37:25.268Z,9.00
2019-03-10T17:40:32.549Z,9.00
2019-03-10T17:43:39.583Z,8.90
2019-03-10T17:46:46.636Z,8.90
2019-03-10T17:49:53.919Z,8.90
2019-03-10T17:53:00.857Z,8.90
2019-03-10T17:56:07.758Z,8.80
2019-03-10T17:59:14.728Z,8.80
2019-03-10T18:02:22.045Z,8.70
2019-03-10T18:05:29.109Z,8.50
2019-03-10T18:08:36.079Z,8.50
2019-03-10T18:11:42.992Z,8.50
2019-03-10T18:14:49.946Z,8.40
2019-03-10T18:17:56.880Z,8.30
2019-03-10T18:21:03.863Z,8.30
2019-03-10T18:24:10.763Z,8.30
2019-03-10T18:27:17.910Z,8.30
2019-03-10T18:30:25.141Z,8.30
2019-03-10T18:33:32.084Z,8.30
2019-03-10T18:36:39.028Z,8.20
2019-03-10T18:39:46.010Z,8.10
2019-03-10T18:42:52.894Z,8.10
2019-03-10T18:45:59.963Z,8.00
2019-03-10T18:49:06.889Z,7.90
2019-03-10T18:52:14.085Z,7.90
2019-03-10T18:55:21.806Z,7.70
2019-03-10T18:58:28.904Z,7.50
2019-03-10T19:01:35.925Z,7.40
2019-03-10T19:04:42.871Z,7.40
2019-03-10T19:07:49.853Z,7.20
2019-03-10T19:10:56.844Z,7.00
2019-03-10T19:14:04.028Z,6.80
2019-03-10T19:17:10.992Z,6.60
2019-03-10T19:20:18.875Z,6.50
2019-03-10T19:23:26.031Z,6.40
2019-03-10T19:26:33.316Z,6.40
2019-03-10T19:29:40.620Z,6.10
2019-03-10T19:32:47.751Z,5.90
2019-03-10T19:35:55.110Z,5.80
2019-03-10T19:39:02.241Z,5.70
2019-03-10T19:42:09.761Z,5.50
2019-03-10T19:45:17.336Z,5.50
2019-03-10T19:48:24.598Z,5.40
2019-03-10T19:51:31.803Z,5.30
2019-03-10T19:54:39.198Z,5.20
2019-03-10T19:57:46.212Z,5.10
2019-03-10T20:00:53.918Z,5.10
2019-03-10T20:04:01.098Z,4.90
2019-03-10T20:07:08.252Z,4.80
2019-03-10T20:10:15.552Z,4.80
2019-03-10T20:13:22.619Z,4.70
2019-03-10T20:16:29.885Z,4.80
2019-03-10T20:19:36.959Z,4.70
2019-03-10T20:22:44.262Z,4.70
2019-03-10T20:25:51.406Z,4.70
2019-03-10T20:28:58.449Z,4.70
2019-03-10T20:32:13.444Z,4.70
2019-03-10T20:35:14.902Z,4.60
2019-03-10T20:38:22.067Z,4.40
2019-03-10T20:41:29.232Z,4.30
2019-03-10T20:44:36.733Z,4.30
2019-03-10T20:47:44.117Z,4.30
2019-03-10T20:50:51.219Z,4.30
2019-03-10T20:53:58.407Z,4.20
2019-03-10T20:57:05.661Z,4.20
2019-03-10T21:00:15.125Z,4.20
2019-03-10T21:03:25.045Z,4.20
2019-03-10T21:06:32.135Z,4.20
2019-03-10T21:09:39.264Z,4.00
2019-03-10T21:12:46.324Z,4.00
2019-03-10T21:15:53.620Z,3.90
2019-03-10T21:19:00.845Z,3.80
2019-03-10T21:22:07.826Z,3.60
2019-03-10T21:25:17.078Z,3.60
2019-03-10T21:28:24.216Z,3.50
2019-03-10T21:31:31.433Z,3.50
2019-03-10T21:34:38.506Z,3.30
2019-03-10T21:37:45.748Z,3.30
2019-03-10T21:40:52.855Z,3.20
2019-03-10T21:43:59.896Z,3.10
2019-03-10T21:47:07.076Z,3.00
2019-03-10T21:50:15.145Z,2.90
2019-03-10T21:53:22.282Z,2.90
2019-03-10T21:56:29.562Z,2.90
2019-03-10T21:59:36.879Z,2.90
2019-03-10T22:02:44.432Z,2.80
2019-03-10T22:05:51.654Z,2.80
2019-03-10T22:08:58.833Z,2.80
2019-03-10T22:12:06.176Z,2.80
2019-03-10T22:15:13.882Z,2.70
2019-03-10T22:18:21.168Z,2.60
2019-03-10T22:21:28.467Z,2.60
2019-03-10T22:24:35.883Z,2.70
2019-03-10T22:27:46.142Z,2.70
2019-03-10T22:30:53.571Z,2.70
2019-03-10T22:34:00.854Z,2.90
2019-03-10T22:37:08.141Z,2.90
2019-03-10T22:40:16.652Z,2.90
2019-03-10T22:43:23.972Z,2.90
2019-03-10T22:46:31.129Z,2.90
2019-03-10T22:49:38.457Z,2.90
2019-03-10T22:52:46.027Z,3.00
2019-03-10T22:55:53.201Z,3.00
2019-03-10T22:59:00.316Z,3.00
2019-03-10T23:02:07.472Z,3.10
2019-03-10T23:05:14.666Z,3.20
2019-03-10T23:08:21.807Z,3.20
2019-03-10T23:11:28.937Z,3.30
2019-03-10T23:14:35.947Z,3.30
2019-03-10T23:17:43.220Z,3.40
2019-03-10T23:20:50.267Z,3.40
2019-03-10T23:23:57.215Z,3.40
2019-03-10T23:27:04.593Z,3.20
2019-03-10T23:30:13.560Z,3.30
2019-03-10T23:33:20.644Z,3.30
2019-03-10T23:36:27.776Z,3.30
2019-03-10T23:39:35.005Z,3.20
2019-03-10T23:42:42.174Z,3.10
2019-03-10T23:45:49.514Z,3.00
2019-03-10T23:48:56.772Z,2.90
2019-03-10T23:52:04.161Z,2.80
2019-03-10T23:55:26.876Z,2.80
2019-03-10T23:58:34.125Z,2.80
